createdAt,value
2022-12-05T00:00:17.205Z,5.15
2022-12-05T00:01:21.822Z,5.14
2022-12-05T00:02:25.392Z,5.12
2022-12-05T00:03:26.976Z,5.13
2022-12-05T00:04:29.664Z,5.10
2022-12-05T00:05:31.455Z,5.10
2022-12-05T00:06:35.322Z,5.10
2022-12-05T00:07:38.465Z,5.09
2022-12-05T00:08:41.322Z,5.07
2022-12-05T00:09:44.048Z,5.06
2022-12-05T00:10:45.729Z,5.04
2022-12-05T00:11:48.195Z,5.04
2022-12-05T00:12:49.797Z,5.04
2022-12-05T00:13:54.044Z,5.03
2022-12-05T00:14:56.564Z,5.01
2022-12-05T00:15:58.052Z,5.01
2022-12-05T00:17:00.635Z,5.02
2022-12-05T00:18:02.185Z,5.01
2022-12-05T00:19:06.902Z,5.01
2022-12-05T00:20:09.747Z,5.04
2022-12-05T00:21:15.621Z,5.05
2022-12-05T00:22:17.289Z,5.05
2022-12-05T00:23:21.333Z,5.07
2022-12-05T00:24:23.923Z,5.07
2022-12-05T00:25:25.460Z,5.08
2022-12-05T00:26:29.407Z,5.07
2022-12-05T00:27:30.899Z,5.06
2022-12-05T00:28:33.841Z,5.07
2022-12-05T00:29:35.377Z,5.08
2022-12-05T00:30:41.142Z,5.07
2022-12-05T00:31:42.888Z,5.07
2022-12-05T00:32:45.508Z,5.07
2022-12-05T00:33:47.635Z,5.08
2022-12-05T00:34:50.485Z,5.11
2022-12-05T00:35:52.514Z,5.11
2022-12-05T00:36:55.037Z,5.12
2022-12-05T00:37:56.677Z,5.12
2022-12-05T00:39:03.215Z,5.12
2022-12-05T00:40:06.295Z,5.12
2022-12-05T00:41:10.539Z,5.10
2022-12-05T00:42:12.047Z,5.10
2022-12-05T00:43:14.545Z,5.10
2022-12-05T00:44:16.093Z,5.10
2022-12-05T00:46:14.757Z,5.10
2022-12-05T00:47:16.815Z,5.12
2022-12-05T00:48:19.343Z,5.11
2022-12-05T00:49:21.113Z,5.07
2022-12-05T00:50:23.588Z,5.07
2022-12-05T00:51:28.074Z,5.04
2022-12-05T00:52:30.590Z,5.04
2022-12-05T00:53:32.361Z,5.05
2022-12-05T00:54:36.272Z,5.06
2022-12-05T00:55:38.040Z,5.05
2022-12-05T00:56:40.908Z,5.05
2022-12-05T00:57:42.471Z,5.05
2022-12-05T00:58:45.529Z,5.05
2022-12-05T00:59:47.016Z,5.05
2022-12-05T01:00:49.697Z,5.05
2022-12-05T01:01:53.166Z,5.07
2022-12-05T01:02:55.488Z,5.08
2022-12-05T01:04:00.283Z,5.08
2022-12-05T01:05:02.813Z,5.07
2022-12-05T01:06:05.974Z,5.05
2022-12-05T01:07:08.872Z,5.04
2022-12-05T01:08:10.602Z,5.06
2022-12-05T01:09:15.805Z,5.07
2022-12-05T01:10:18.690Z,5.07
2022-12-05T01:11:23.065Z,5.08
2022-12-05T01:12:24.767Z,5.09
2022-12-05T01:13:28.078Z,5.11
2022-12-05T01:14:29.767Z,5.11
2022-12-05T01:15:32.393Z,5.12
2022-12-05T01:16:35.826Z,5.12
2022-12-05T01:17:38.705Z,5.13
2022-12-05T01:18:41.527Z,5.13
2022-12-05T01:19:44.112Z,5.14
2022-12-05T01:20:47.992Z,5.15
2022-12-05T01:21:50.655Z,5.18
2022-12-05T01:22:52.219Z,5.16
2022-12-05T01:23:55.391Z,5.16
2022-12-05T01:24:58.098Z,5.16
2022-12-05T01:26:06.884Z,5.16
2022-12-05T01:27:08.562Z,5.17
2022-12-05T01:28:11.358Z,5.17
2022-12-05T01:29:14.935Z,5.17
2022-12-05T01:30:17.834Z,5.17
2022-12-05T01:31:22.950Z,5.18
2022-12-05T01:32:25.649Z,5.16
2022-12-05T01:33:27.283Z,5.16
2022-12-05T01:34:29.936Z,5.16
2022-12-05T01:35:31.707Z,5.16
2022-12-05T01:36:34.966Z,5.16
2022-12-05T01:37:36.595Z,5.16
2022-12-05T01:38:40.115Z,5.18
2022-12-05T01:39:41.910Z,5.19
2022-12-05T01:40:44.510Z,5.21
2022-12-05T01:41:49.762Z,5.23
2022-12-05T01:42:52.623Z,5.22
2022-12-05T01:43:56.988Z,5.21
2022-12-05T01:45:06.380Z,5.21
2022-12-05T01:46:08.043Z,5.19
2022-12-05T01:47:11.181Z,5.21
2022-12-05T01:48:18.587Z,5.21
2022-12-05T01:49:26.891Z,5.19
2022-12-05T01:50:28.612Z,5.18
2022-12-05T01:51:31.616Z,5.18
2022-12-05T01:52:34.488Z,5.20
2022-12-05T01:53:37.555Z,5.21
2022-12-05T01:54:39.184Z,5.20
2022-12-05T01:55:41.832Z,5.20
2022-12-05T01:56:49.519Z,5.20
2022-12-05T01:57:52.057Z,5.21
2022-12-05T01:58:55.639Z,5.22
2022-12-05T02:00:02.927Z,5.21
2022-12-05T02:01:07.904Z,5.23
2022-12-05T02:02:11.653Z,5.23
2022-12-05T02:03:20.168Z,5.23
2022-12-05T02:04:21.886Z,5.23
2022-12-05T02:05:28.411Z,5.23
2022-12-05T02:06:32.545Z,5.23
2022-12-05T02:07:39.023Z,5.23
2022-12-05T02:08:41.684Z,5.23
2022-12-05T02:09:44.303Z,5.22
2022-12-05T02:10:49.577Z,5.24
2022-12-05T02:11:58.084Z,5.25
2022-12-05T02:13:18.429Z,5.24
2022-12-05T02:14:27.748Z,5.24
2022-12-05T02:15:40.338Z,5.23
2022-12-05T02:16:58.036Z,5.23
2022-12-05T02:18:13.973Z,5.24
2022-12-05T02:19:43.876Z,5.23
2022-12-05T02:21:03.111Z,5.22
2022-12-05T02:22:28.241Z,5.20
2022-12-05T02:23:52.871Z,5.19
2022-12-05T02:25:10.350Z,5.19
2022-12-05T02:26:37.965Z,5.19
2022-12-05T02:28:00.642Z,5.19
2022-12-05T02:29:28.534Z,5.19
2022-12-05T02:30:38.614Z,5.20
2022-12-05T02:31:49.704Z,5.20
2022-12-05T02:33:07.603Z,5.22
2022-12-05T02:34:18.223Z,5.22
2022-12-05T02:35:34.008Z,5.22
2022-12-05T02:36:40.897Z,5.21
2022-12-05T02:37:52.422Z,5.22
2022-12-05T02:39:03.236Z,5.22
2022-12-05T02:40:12.574Z,5.22
2022-12-05T02:41:20.185Z,5.22
2022-12-05T02:42:26.729Z,5.23
2022-12-05T02:43:35.753Z,5.24
2022-12-05T02:44:42.894Z,5.27
2022-12-05T02:45:51.900Z,5.27
2022-12-05T02:46:55.263Z,5.28
2022-12-05T02:47:58.633Z,5.29
2022-12-05T02:49:09.982Z,5.30
2022-12-05T02:50:17.681Z,5.30
2022-12-05T02:51:22.852Z,5.31
2022-12-05T02:52:26.626Z,5.33
2022-12-05T02:53:30.412Z,5.33
2022-12-05T02:54:36.566Z,5.34
2022-12-05T02:55:40.412Z,5.37
2022-12-05T02:56:45.448Z,5.36
2022-12-05T02:57:51.904Z,5.36
2022-12-05T02:58:56.461Z,5.36
2022-12-05T02:59:58.194Z,5.36
2022-12-05T03:01:02.436Z,5.36
2022-12-05T03:02:04.835Z,5.36
2022-12-05T03:03:14.906Z,5.37
2022-12-05T03:04:18.508Z,5.37
2022-12-05T03:05:33.038Z,5.35
2022-12-05T03:06:39.896Z,5.35
2022-12-05T03:07:47.616Z,5.35
2022-12-05T03:08:52.744Z,5.36
2022-12-05T03:09:59.607Z,5.36
2022-12-05T03:11:03.071Z,5.38
2022-12-05T03:12:13.581Z,5.39
2022-12-05T03:13:20.196Z,5.40
2022-12-05T03:14:26.667Z,5.40
2022-12-05T03:15:33.024Z,5.41
2022-12-05T03:16:41.724Z,5.41
2022-12-05T03:17:50.278Z,5.41
2022-12-05T03:18:58.910Z,5.40
2022-12-05T03:20:05.086Z,5.40
2022-12-05T03:21:16.462Z,5.40
2022-12-05T03:22:24.517Z,5.40
2022-12-05T03:23:32.381Z,5.35
2022-12-05T03:24:36.932Z,5.35
2022-12-05T03:25:54.530Z,5.33
2022-12-05T03:27:05.338Z,5.32
2022-12-05T03:28:15.842Z,5.30
2022-12-05T03:29:25.958Z,5.28
2022-12-05T03:30:28.761Z,5.30
2022-12-05T03:31:39.929Z,5.29
2022-12-05T03:32:46.526Z,5.31
2022-12-05T03:33:50.653Z,5.31
2022-12-05T03:35:06.295Z,5.32
2022-12-05T03:36:14.333Z,5.33
2022-12-05T03:37:27.161Z,5.34
2022-12-05T03:38:34.431Z,5.35
2022-12-05T03:39:42.351Z,5.35
2022-12-05T03:40:48.287Z,5.34
2022-12-05T03:41:58.513Z,5.33
2022-12-05T03:43:05.996Z,5.34
2022-12-05T03:44:14.210Z,5.34
2022-12-05T03:45:20.285Z,5.34
2022-12-05T03:46:27.453Z,5.33
2022-12-05T03:47:41.270Z,5.32
2022-12-05T03:48:50.571Z,5.31
2022-12-05T03:49:58.382Z,5.30
2022-12-05T03:51:04.143Z,5.31
2022-12-05T03:52:11.078Z,5.30
2022-12-05T03:53:21.254Z,5.29
2022-12-05T03:54:26.271Z,5.30
2022-12-05T03:55:32.379Z,5.31
2022-12-05T03:56:38.223Z,5.31
2022-12-05T03:57:45.706Z,5.33
2022-12-05T03:58:52.176Z,5.34
2022-12-05T04:00:00.241Z,5.35
2022-12-05T04:01:06.954Z,5.35
2022-12-05T04:02:15.926Z,5.35
2022-12-05T04:03:22.998Z,5.35
2022-12-05T04:04:31.887Z,5.36
2022-12-05T04:05:41.353Z,5.36
2022-12-05T04:06:48.829Z,5.37
2022-12-05T04:07:55.647Z,5.37
2022-12-05T04:09:01.753Z,5.35
2022-12-05T04:10:08.518Z,5.34
2022-12-05T04:11:17.219Z,5.34
2022-12-05T04:12:24.331Z,5.34
2022-12-05T04:13:34.509Z,5.35
2022-12-05T04:14:43.315Z,5.34
2022-12-05T04:16:11.699Z,5.33
2022-12-05T04:17:21.023Z,5.32
2022-12-05T04:18:27.783Z,5.31
2022-12-05T04:19:49.733Z,5.31
2022-12-05T04:21:11.683Z,5.34
2022-12-05T04:22:14.401Z,5.36
2022-12-05T04:23:17.139Z,5.37
2022-12-05T04:24:40.643Z,5.38
2022-12-05T04:25:58.315Z,5.38
2022-12-05T04:27:09.476Z,5.37
2022-12-05T04:28:26.890Z,5.37
2022-12-05T04:29:32.524Z,5.37
2022-12-05T04:30:40.369Z,5.36
2022-12-05T04:31:43.980Z,5.36
2022-12-05T04:32:53.014Z,5.35
2022-12-05T04:34:01.272Z,5.36
2022-12-05T04:35:10.912Z,5.35
2022-12-05T04:36:16.258Z,5.36
2022-12-05T04:37:26.157Z,5.36
2022-12-05T04:38:36.392Z,5.38
2022-12-05T04:39:43.875Z,5.40
2022-12-05T04:40:53.207Z,5.41
2022-12-05T04:41:59.287Z,5.40
2022-12-05T04:43:03.575Z,5.41
2022-12-05T04:44:09.587Z,5.39
2022-12-05T04:45:15.432Z,5.39
2022-12-05T04:46:19.978Z,5.36
2022-12-05T04:47:26.923Z,5.34
2022-12-05T04:48:30.255Z,5.33
2022-12-05T04:49:35.698Z,5.32
2022-12-05T04:50:40.591Z,5.31
2022-12-05T04:51:44.616Z,5.30
2022-12-05T04:52:52.623Z,5.29
2022-12-05T04:53:58.356Z,5.27
2022-12-05T04:55:05.538Z,5.24
2022-12-05T04:56:10.478Z,5.23
2022-12-05T04:57:17.547Z,5.23
2022-12-05T04:58:22.493Z,5.23
2022-12-05T04:59:24.109Z,5.20
2022-12-05T05:00:29.213Z,5.19
2022-12-05T05:01:37.172Z,5.21
2022-12-05T05:02:45.847Z,5.22
2022-12-05T05:03:51.518Z,5.22
2022-12-05T05:04:58.908Z,5.22
2022-12-05T05:06:01.083Z,5.23
2022-12-05T05:07:07.380Z,5.23
2022-12-05T05:08:19.370Z,5.24
2022-12-05T05:09:20.974Z,5.25
2022-12-05T05:10:32.376Z,5.26
2022-12-05T05:11:35.618Z,5.27
2022-12-05T05:12:38.131Z,5.25
2022-12-05T05:13:39.770Z,5.23
2022-12-05T05:14:42.303Z,5.22
2022-12-05T05:15:43.951Z,5.21
2022-12-05T05:16:47.394Z,5.22
2022-12-05T05:17:49.022Z,5.23
2022-12-05T05:18:52.868Z,5.23
2022-12-05T05:20:19.810Z,5.24
2022-12-05T05:21:26.225Z,5.27
2022-12-05T05:22:27.797Z,5.28
2022-12-05T05:23:30.344Z,5.28
2022-12-05T05:24:31.912Z,5.29
2022-12-05T05:25:34.394Z,5.29
2022-12-05T05:26:37.808Z,5.29
2022-12-05T05:27:40.335Z,5.28
2022-12-05T05:28:42.387Z,5.28
2022-12-05T05:29:44.920Z,5.28
2022-12-05T05:30:46.563Z,5.26
2022-12-05T05:31:49.159Z,5.27
2022-12-05T05:32:51.018Z,5.27
2022-12-05T05:33:55.649Z,5.28
2022-12-05T05:34:59.002Z,5.27
2022-12-05T05:36:04.479Z,5.28
2022-12-05T05:37:06.026Z,5.28
2022-12-05T05:38:08.579Z,5.27
2022-12-05T05:39:13.453Z,5.29
2022-12-05T05:40:16.069Z,5.30
2022-12-05T05:41:21.108Z,5.29
2022-12-05T05:42:23.648Z,5.30
2022-12-05T05:43:25.233Z,5.30
2022-12-05T05:44:27.717Z,5.30
2022-12-05T05:45:30.253Z,5.31
2022-12-05T05:46:34.697Z,5.30
2022-12-05T05:47:37.307Z,5.31
2022-12-05T05:48:39.153Z,5.33
2022-12-05T05:49:41.643Z,5.32
2022-12-05T05:50:44.516Z,5.32
2022-12-05T05:51:47.039Z,5.30
2022-12-05T05:52:48.618Z,5.33
2022-12-05T05:53:51.091Z,5.34
2022-12-05T05:54:52.814Z,5.34
2022-12-05T05:55:55.707Z,5.33
2022-12-05T05:56:57.193Z,5.34
2022-12-05T05:57:59.983Z,5.33
2022-12-05T05:59:03.592Z,5.34
2022-12-05T06:00:08.442Z,5.34
2022-12-05T06:01:12.582Z,5.35
2022-12-05T06:02:15.130Z,5.36
2022-12-05T06:03:17.975Z,5.37
2022-12-05T06:04:19.687Z,5.39
2022-12-05T06:05:22.251Z,5.40
2022-12-05T06:06:25.369Z,5.40
2022-12-05T06:07:28.288Z,5.42
2022-12-05T06:08:30.436Z,5.43
2022-12-05T06:09:34.478Z,5.43
2022-12-05T06:10:38.419Z,5.44
2022-12-05T06:11:40.926Z,5.44
2022-12-05T06:12:42.539Z,5.45
2022-12-05T06:13:45.148Z,5.43
2022-12-05T06:14:47.289Z,5.44
2022-12-05T06:15:49.931Z,5.44
2022-12-05T06:16:55.124Z,5.45
2022-12-05T06:17:57.723Z,5.45
2022-12-05T06:18:59.282Z,5.47
2022-12-05T06:20:08.927Z,5.48
2022-12-05T06:21:16.004Z,5.48
2022-12-05T06:22:20.352Z,5.50
2022-12-05T06:23:22.664Z,5.50
2022-12-05T06:24:25.226Z,5.50
2022-12-05T06:25:26.807Z,5.50
2022-12-05T06:26:29.410Z,5.50
2022-12-05T06:27:31.425Z,5.50
2022-12-05T06:28:34.305Z,5.50
2022-12-05T06:29:35.960Z,5.49
2022-12-05T06:30:39.446Z,5.49
2022-12-05T06:31:41.763Z,5.49
2022-12-05T06:32:44.313Z,5.50
2022-12-05T06:33:46.199Z,5.52
2022-12-05T06:34:48.674Z,5.52
2022-12-05T06:36:01.992Z,5.54
2022-12-05T06:37:04.598Z,5.54
2022-12-05T06:38:07.703Z,5.54
2022-12-05T06:39:10.188Z,5.56
2022-12-05T06:40:12.745Z,5.54
2022-12-05T06:41:16.958Z,5.53
2022-12-05T06:42:18.495Z,5.53
2022-12-05T06:43:22.034Z,5.51
2022-12-05T06:44:26.795Z,5.52
2022-12-05T06:45:29.423Z,5.53
2022-12-05T06:46:32.057Z,5.53
2022-12-05T06:47:33.659Z,5.52
2022-12-05T06:48:36.238Z,5.53
2022-12-05T06:49:38.327Z,5.52
2022-12-05T06:50:41.183Z,5.51
2022-12-05T06:51:44.249Z,5.50
2022-12-05T06:52:46.792Z,5.47
2022-12-05T06:53:50.673Z,5.46
2022-12-05T06:54:55.164Z,5.44
2022-12-05T06:55:59.203Z,5.43
2022-12-05T06:57:00.766Z,5.43
2022-12-05T06:58:03.552Z,5.39
2022-12-05T06:59:06.118Z,5.41
2022-12-05T07:00:27.922Z,5.39
2022-12-05T07:01:38.958Z,5.38
2022-12-05T07:02:42.249Z,5.36
2022-12-05T07:03:43.970Z,5.35
2022-12-05T07:04:46.905Z,5.34
2022-12-05T07:05:48.973Z,5.34
2022-12-05T07:06:55.195Z,5.34
2022-12-05T07:07:56.809Z,5.36
2022-12-05T07:09:01.091Z,5.36
2022-12-05T07:10:03.455Z,5.36
2022-12-05T07:11:06.351Z,5.35
2022-12-05T07:12:07.879Z,5.33
2022-12-05T07:13:14.503Z,5.34
2022-12-05T07:14:45.844Z,5.30
2022-12-05T07:15:41.280Z,5.29
2022-12-05T07:16:44.854Z,5.28
2022-12-05T07:17:46.454Z,5.25
2022-12-05T07:18:50.018Z,5.24
2022-12-05T07:19:52.751Z,5.24
2022-12-05T07:21:15.291Z,5.24
2022-12-05T07:22:18.180Z,5.27
2022-12-05T07:23:19.731Z,5.27
2022-12-05T07:24:23.763Z,5.26
2022-12-05T07:25:26.204Z,5.25
2022-12-05T07:26:28.908Z,5.26
2022-12-05T07:27:30.464Z,5.25
2022-12-05T07:28:33.107Z,5.27
2022-12-05T07:29:35.637Z,5.27
2022-12-05T07:30:37.219Z,5.25
2022-12-05T07:31:39.793Z,5.25
2022-12-05T07:32:42.338Z,5.24
2022-12-05T07:33:44.418Z,5.22
2022-12-05T07:34:49.746Z,5.21
2022-12-05T07:35:59.662Z,5.19
2022-12-05T07:37:02.221Z,5.18
2022-12-05T07:38:03.914Z,5.16
2022-12-05T07:39:06.456Z,5.16
2022-12-05T07:40:11.152Z,5.12
2022-12-05T07:41:18.058Z,5.08
2022-12-05T07:42:20.578Z,5.09
2022-12-05T07:43:22.169Z,5.06
2022-12-05T07:44:24.711Z,5.04
2022-12-05T07:45:26.327Z,5.04
2022-12-05T07:46:30.008Z,5.04
2022-12-05T07:47:31.634Z,5.05
2022-12-05T07:48:34.256Z,5.04
2022-12-05T07:49:36.851Z,5.06
2022-12-05T07:50:38.423Z,5.07
2022-12-05T07:51:41.232Z,5.06
2022-12-05T07:52:43.710Z,5.07
2022-12-05T07:53:46.029Z,5.08
2022-12-05T07:54:48.534Z,5.09
2022-12-05T07:55:52.535Z,5.10
2022-12-05T07:56:54.060Z,5.14
2022-12-05T07:57:56.580Z,5.15
2022-12-05T07:58:58.215Z,5.15
2022-12-05T08:00:00.954Z,5.15
2022-12-05T08:01:09.956Z,5.16
2022-12-05T08:02:12.579Z,5.17
2022-12-05T08:03:14.171Z,5.18
2022-12-05T08:04:16.674Z,5.20
2022-12-05T08:05:18.279Z,5.22
2022-12-05T08:06:22.765Z,5.23
2022-12-05T08:07:24.286Z,5.25
2022-12-05T08:08:26.796Z,5.27
2022-12-05T08:09:29.348Z,5.25
2022-12-05T08:10:30.925Z,5.26
2022-12-05T08:11:36.197Z,5.24
2022-12-05T08:12:39.281Z,5.23
2022-12-05T08:13:41.908Z,5.24
2022-12-05T08:14:44.656Z,5.26
2022-12-05T08:15:46.245Z,5.28
2022-12-05T08:16:48.942Z,5.28
2022-12-05T08:17:51.094Z,5.27
2022-12-05T08:18:55.591Z,5.30
2022-12-05T08:19:58.336Z,5.30
2022-12-05T08:21:04.348Z,5.29
2022-12-05T08:22:05.856Z,5.30
2022-12-05T08:23:08.601Z,5.31
2022-12-05T08:24:11.911Z,5.31
2022-12-05T08:25:14.419Z,5.33
2022-12-05T08:26:20.331Z,5.31
2022-12-05T08:27:23.466Z,5.30
2022-12-05T08:28:26.325Z,5.32
2022-12-05T08:29:28.865Z,5.34
2022-12-05T08:30:30.410Z,5.35
2022-12-05T08:31:35.135Z,5.36
2022-12-05T08:32:41.975Z,5.37
2022-12-05T08:33:45.577Z,5.37
2022-12-05T08:34:48.093Z,5.39
2022-12-05T08:35:49.678Z,5.39
2022-12-05T08:36:52.215Z,5.39
2022-12-05T08:37:54.788Z,5.41
2022-12-05T08:38:58.163Z,5.42
2022-12-05T08:39:59.912Z,5.42
2022-12-05T08:41:03.193Z,5.42
2022-12-05T08:42:05.682Z,5.42
2022-12-05T08:43:08.555Z,5.43
2022-12-05T08:44:16.135Z,5.44
2022-12-05T08:45:18.871Z,5.45
2022-12-05T08:46:20.757Z,5.47
2022-12-05T08:47:23.441Z,5.47
2022-12-05T08:48:29.275Z,5.47
2022-12-05T08:49:32.440Z,5.46
2022-12-05T08:50:34.917Z,5.47
2022-12-05T08:51:37.430Z,5.46
2022-12-05T08:52:38.943Z,5.45
2022-12-05T08:53:44.726Z,5.45
2022-12-05T08:54:47.539Z,5.45
2022-12-05T08:55:49.066Z,5.45
2022-12-05T08:56:52.423Z,5.42
2022-12-05T08:57:54.941Z,5.40
2022-12-05T08:59:04.740Z,5.38
2022-12-05T09:00:09.546Z,5.38
2022-12-05T09:01:15.762Z,5.39
2022-12-05T09:02:17.382Z,5.39
2022-12-05T09:03:19.895Z,5.39
2022-12-05T09:04:22.379Z,5.38
2022-12-05T09:05:29.377Z,5.40
2022-12-05T09:06:34.221Z,5.41
2022-12-05T09:07:36.747Z,5.42
2022-12-05T09:08:40.367Z,5.42
2022-12-05T09:09:42.880Z,5.43
2022-12-05T09:10:44.436Z,5.44
2022-12-05T09:11:49.032Z,5.44
2022-12-05T09:12:51.229Z,5.43
2022-12-05T09:13:55.665Z,5.40
2022-12-05T09:14:59.782Z,5.43
2022-12-05T09:16:05.728Z,5.44
2022-12-05T09:17:08.378Z,5.44
2022-12-05T09:18:10.386Z,5.46
2022-12-05T09:19:15.357Z,5.47
2022-12-05T09:20:17.106Z,5.49
2022-12-05T09:21:22.201Z,5.49
2022-12-05T09:22:24.814Z,5.50
2022-12-05T09:23:26.415Z,5.50
2022-12-05T09:24:28.942Z,5.52
2022-12-05T09:25:31.432Z,5.52
2022-12-05T09:26:32.996Z,5.53
2022-12-05T09:27:35.606Z,5.54
2022-12-05T09:28:37.647Z,5.54
2022-12-05T09:29:40.296Z,5.55
2022-12-05T09:30:43.779Z,5.54
2022-12-05T09:31:47.990Z,5.52
2022-12-05T09:32:49.523Z,5.55
2022-12-05T09:33:52.886Z,5.51
2022-12-05T09:34:55.573Z,5.49
2022-12-05T09:35:57.289Z,5.47
2022-12-05T09:37:23.231Z,5.45
2022-12-05T09:38:28.218Z,5.45
2022-12-05T09:39:31.641Z,5.42
2022-12-05T09:40:33.732Z,5.40
2022-12-05T09:42:08.161Z,5.39
2022-12-05T09:43:23.329Z,5.38
2022-12-05T09:44:36.755Z,5.38
2022-12-05T09:45:46.910Z,5.38
2022-12-05T09:46:55.486Z,5.38
2022-12-05T09:48:01.922Z,5.40
2022-12-05T09:49:05.588Z,5.42
2022-12-05T09:50:18.019Z,5.46
2022-12-05T09:51:20.693Z,5.49
2022-12-05T09:52:25.196Z,5.50
2022-12-05T09:53:30.583Z,5.52
2022-12-05T09:54:32.858Z,5.53
2022-12-05T09:55:46.231Z,5.55
2022-12-05T09:56:51.960Z,5.58
2022-12-05T09:57:56.852Z,5.61
2022-12-05T09:59:01.521Z,5.64
2022-12-05T10:00:05.861Z,5.66
2022-12-05T10:01:34.242Z,5.69
2022-12-05T10:02:46.130Z,5.69
2022-12-05T10:04:07.109Z,5.73
2022-12-05T10:05:15.044Z,5.74
2022-12-05T10:06:24.426Z,5.75
2022-12-05T10:07:35.741Z,5.74
2022-12-05T10:08:43.448Z,5.74
2022-12-05T10:10:00.398Z,5.75
2022-12-05T10:15:45.886Z,5.73
2022-12-05T10:16:53.769Z,5.72
2022-12-05T10:18:02.720Z,5.74
2022-12-05T10:19:11.904Z,5.72
2022-12-05T10:20:16.803Z,5.73
2022-12-05T10:21:23.780Z,5.74
2022-12-05T10:22:29.505Z,5.72
2022-12-05T10:25:03.451Z,5.70
2022-12-05T10:26:09.404Z,5.70
2022-12-05T10:27:19.316Z,5.71
2022-12-05T10:28:31.508Z,5.75
2022-12-05T10:29:38.983Z,5.76
2022-12-05T10:30:43.646Z,5.78
2022-12-05T10:31:48.632Z,5.79
2022-12-05T10:32:56.393Z,5.79
2022-12-05T10:34:07.099Z,5.78
2022-12-05T10:35:17.702Z,5.78
2022-12-05T10:36:20.235Z,5.76
2022-12-05T10:37:24.682Z,5.76
2022-12-05T10:38:30.769Z,5.77
2022-12-05T10:39:33.367Z,5.77
2022-12-05T10:40:37.345Z,5.78
2022-12-05T10:41:39.850Z,5.78
2022-12-05T10:42:42.913Z,5.78
2022-12-05T10:43:46.804Z,5.77
2022-12-05T10:44:50.810Z,5.77
2022-12-05T10:45:53.781Z,5.76
2022-12-05T10:46:56.751Z,5.77
2022-12-05T10:47:59.661Z,5.76
2022-12-05T10:49:03.714Z,5.75
2022-12-05T10:53:14.164Z,5.82
2022-12-05T10:54:19.953Z,5.83
2022-12-05T10:55:22.896Z,5.81
2022-12-05T10:56:43.524Z,5.77
2022-12-05T10:57:51.535Z,5.73
2022-12-05T10:58:55.738Z,5.70
2022-12-05T11:00:09.984Z,5.69
2022-12-05T11:01:16.513Z,5.66
2022-12-05T11:02:25.515Z,5.64
2022-12-05T11:03:32.569Z,5.66
2022-12-05T11:04:44.952Z,5.64
2022-12-05T11:05:49.529Z,5.64
2022-12-05T11:06:56.324Z,5.65
2022-12-05T11:07:59.654Z,5.63
2022-12-05T11:09:06.251Z,5.60
2022-12-05T11:10:26.440Z,5.58
2022-12-05T11:11:33.178Z,5.56
2022-12-05T11:12:39.221Z,5.53
2022-12-05T11:13:52.790Z,5.52
2022-12-05T11:19:37.600Z,5.49
2022-12-05T11:20:46.139Z,5.45
2022-12-05T11:21:48.883Z,5.42
2022-12-05T11:22:53.292Z,5.41
2022-12-05T11:23:56.226Z,5.41
2022-12-05T11:24:59.022Z,5.41
2022-12-05T11:26:01.806Z,5.41
2022-12-05T11:27:25.508Z,5.41
2022-12-05T11:28:33.668Z,5.41
2022-12-05T11:29:37.908Z,5.42
2022-12-05T11:30:39.506Z,5.42
2022-12-05T11:31:52.425Z,5.42
2022-12-05T11:33:12.600Z,5.45
2022-12-05T11:34:19.577Z,5.42
2022-12-05T11:35:27.718Z,5.42
2022-12-05T11:36:39.265Z,5.44
2022-12-05T11:37:47.193Z,5.45
2022-12-05T11:38:50.237Z,5.48
2022-12-05T11:39:53.490Z,5.50
2022-12-05T11:41:02.718Z,5.54
2022-12-05T11:45:30.009Z,5.58
2022-12-05T11:46:40.704Z,5.59
2022-12-05T11:48:09.886Z,5.59
2022-12-05T11:49:33.771Z,5.61
2022-12-05T11:50:45.117Z,5.60
2022-12-05T11:51:56.736Z,5.58
2022-12-05T11:53:15.011Z,5.59
2022-12-05T11:55:06.008Z,5.56
2022-12-05T11:56:11.552Z,5.52
2022-12-05T11:57:25.847Z,5.48
2022-12-05T11:58:43.242Z,5.45
2022-12-05T12:00:08.791Z,5.43
2022-12-05T12:01:23.760Z,5.42
2022-12-05T12:05:45.031Z,5.39
2022-12-05T12:07:00.650Z,5.32
2022-12-05T12:08:13.923Z,5.30
2022-12-05T12:09:31.502Z,5.30
2022-12-05T12:10:41.663Z,5.29
2022-12-05T12:11:51.031Z,5.30
2022-12-05T12:13:09.166Z,5.28
2022-12-05T12:14:20.440Z,5.27
2022-12-05T12:15:47.286Z,5.25
2022-12-05T12:17:04.474Z,5.25
2022-12-05T12:18:20.508Z,5.25
2022-12-05T12:19:39.570Z,5.23
2022-12-05T12:20:56.528Z,5.23
2022-12-05T12:22:13.514Z,5.20
2022-12-05T12:23:38.671Z,5.20
2022-12-05T12:24:58.235Z,5.18
2022-12-05T12:26:09.695Z,5.15
2022-12-05T12:27:21.731Z,5.13
2022-12-05T12:28:40.226Z,5.10
2022-12-05T12:34:43.100Z,5.01
2022-12-05T12:35:53.359Z,4.97
2022-12-05T12:37:03.635Z,4.96
2022-12-05T12:38:31.562Z,4.93
2022-12-05T12:39:42.723Z,4.91
2022-12-05T12:40:50.376Z,4.89
2022-12-05T12:42:09.507Z,4.86
2022-12-05T12:43:52.794Z,4.84
2022-12-05T12:45:28.413Z,4.84
2022-12-05T12:46:43.659Z,4.81
2022-12-05T12:47:56.012Z,4.79
2022-12-05T12:49:20.150Z,4.77
2022-12-05T12:50:25.852Z,4.75
2022-12-05T12:51:30.598Z,4.74
2022-12-05T12:52:51.640Z,4.72
2022-12-05T12:55:02.371Z,4.73
2022-12-05T12:56:08.347Z,4.71
2022-12-05T12:57:24.008Z,4.70
2022-12-05T12:58:41.285Z,4.69
2022-12-05T12:59:56.235Z,4.69
2022-12-05T13:01:05.144Z,4.69
2022-12-05T13:02:18.265Z,4.67
2022-12-05T13:03:25.226Z,4.68
2022-12-05T13:04:33.292Z,4.68
2022-12-05T13:05:42.575Z,4.68
2022-12-05T13:06:50.128Z,4.66
2022-12-05T13:07:57.864Z,4.65
2022-12-05T13:09:04.102Z,4.62
2022-12-05T13:10:18.420Z,4.62
2022-12-05T13:11:23.643Z,4.60
2022-12-05T13:12:28.200Z,4.58
2022-12-05T13:13:36.533Z,4.57
2022-12-05T13:14:44.906Z,4.57
2022-12-05T13:15:50.473Z,4.55
2022-12-05T13:16:55.163Z,4.54
2022-12-05T13:17:58.394Z,4.53
2022-12-05T13:19:01.823Z,4.52
2022-12-05T13:20:03.921Z,4.51
2022-12-05T13:21:08.901Z,4.52
2022-12-05T13:22:13.503Z,4.49
2022-12-05T13:23:18.114Z,4.49
2022-12-05T13:24:25.910Z,4.49
2022-12-05T13:25:33.534Z,4.48
2022-12-05T13:26:36.284Z,4.47
2022-12-05T13:27:38.814Z,4.46
2022-12-05T13:28:51.060Z,4.45
2022-12-05T13:29:58.474Z,4.44
2022-12-05T13:31:02.615Z,4.44
2022-12-05T13:32:08.574Z,4.45
2022-12-05T13:33:25.512Z,4.45
2022-12-05T13:34:46.238Z,4.44
2022-12-05T13:36:06.328Z,4.43
2022-12-05T13:37:30.388Z,4.45
2022-12-05T13:38:57.131Z,4.45
2022-12-05T13:40:17.300Z,4.46
2022-12-05T13:41:38.944Z,4.45
2022-12-05T13:42:41.717Z,4.46
2022-12-05T13:44:05.354Z,4.45
2022-12-05T13:45:12.674Z,4.45
2022-12-05T13:46:27.081Z,4.45
2022-12-05T13:47:33.896Z,4.47
2022-12-05T13:48:40.735Z,4.46
2022-12-05T13:49:47.480Z,4.46
2022-12-05T13:50:57.341Z,4.45
2022-12-05T13:52:08.054Z,4.47
2022-12-05T13:53:26.944Z,4.47
2022-12-05T13:54:31.086Z,4.49
2022-12-05T13:55:36.681Z,4.48
2022-12-05T13:56:52.416Z,4.48
2022-12-05T13:57:56.932Z,4.47
2022-12-05T13:59:00.258Z,4.48
2022-12-05T14:00:20.756Z,4.48
2022-12-05T14:01:56.105Z,4.50
2022-12-05T14:03:04.724Z,4.49
2022-12-05T14:04:37.520Z,4.49
2022-12-05T14:05:47.911Z,4.48
2022-12-05T14:06:57.650Z,4.47
2022-12-05T14:08:03.856Z,4.46
2022-12-05T14:09:29.457Z,4.48
2022-12-05T14:11:05.731Z,4.50
2022-12-05T14:12:44.351Z,4.51
2022-12-05T14:13:50.005Z,4.52
2022-12-05T14:15:00.472Z,4.50
2022-12-05T14:16:41.998Z,4.51
2022-12-05T14:17:46.101Z,4.51
2022-12-05T14:18:54.857Z,4.51
2022-12-05T14:20:17.472Z,4.51
2022-12-05T14:21:35.241Z,4.50
2022-12-05T14:23:00.005Z,4.50
2022-12-05T14:24:09.085Z,4.51
2022-12-05T14:25:37.258Z,4.51
2022-12-05T14:26:54.118Z,4.51
2022-12-05T14:28:04.297Z,4.49
2022-12-05T14:29:33.200Z,4.50
2022-12-05T14:30:50.473Z,4.49
2022-12-05T14:32:07.175Z,4.49
2022-12-05T14:33:15.135Z,4.49
2022-12-05T14:34:24.745Z,4.49
2022-12-05T14:35:32.733Z,4.50
2022-12-05T14:36:35.488Z,4.49
2022-12-05T14:37:44.423Z,4.48
2022-12-05T14:38:51.112Z,4.48
2022-12-05T14:39:58.019Z,4.46
2022-12-05T14:41:14.649Z,4.46
2022-12-05T14:42:25.232Z,4.45
2022-12-05T14:43:32.752Z,4.44
2022-12-05T14:44:34.434Z,4.43
2022-12-05T14:45:39.763Z,4.44
2022-12-05T14:46:45.290Z,4.44
2022-12-05T14:47:52.719Z,4.45
2022-12-05T14:48:56.039Z,4.47
2022-12-05T14:50:04.276Z,4.45
2022-12-05T14:51:45.563Z,4.47
2022-12-05T14:53:30.760Z,4.45
2022-12-05T14:54:33.385Z,4.43
2022-12-05T14:55:37.206Z,4.42
2022-12-05T14:56:42.484Z,4.41
2022-12-05T14:57:48.219Z,4.40
2022-12-05T14:58:56.785Z,4.39
2022-12-05T15:00:01.541Z,4.40
2022-12-05T15:01:14.864Z,4.38
2022-12-05T15:02:23.089Z,4.38
2022-12-05T15:03:31.675Z,4.36
2022-12-05T15:04:41.476Z,4.36
2022-12-05T15:05:44.136Z,4.36
2022-12-05T15:06:50.861Z,4.36
2022-12-05T15:07:54.853Z,4.34
2022-12-05T15:09:28.693Z,4.33
2022-12-05T15:10:29.321Z,4.32
2022-12-05T15:11:33.714Z,4.31
2022-12-05T15:12:42.198Z,4.29
2022-12-05T15:13:43.842Z,4.30
2022-12-05T15:14:54.849Z,4.29
2022-12-05T15:16:03.833Z,4.29
2022-12-05T15:17:08.473Z,4.27
2022-12-05T15:18:21.447Z,4.26
2022-12-05T15:19:29.819Z,4.25
2022-12-05T15:20:40.827Z,4.24